Time;durP1;ratioP1;P1;durP2;ratioP2;P2;SDS_P1;SDS_P2;PMS_P1;PMS_P2;Temp;Humidity;BMP_temperature;BMP_pressure;BME280_temperature;BME280_humidity;BME280_pressure;Samples;Min_cycle;Max_cycle;Signal;HPM_P1;HPM_P2
2022/05/04 00:01:10;;;;;;;17.55;9.85;;;;;;;;;;5071900;28;20051;-42
2022/05/04 00:03:39;;;;;;;14.35;10.32;;;;;;;;;;5072323;28;20028;-42
2022/05/04 00:06:05;;;;;;;15.35;9.75;;;;;;;;;;5072092;28;20078;-42
2022/05/04 00:08:34;;;;;;;14.48;9.98;;;;;;;;;;5072154;28;20039;-42
2022/05/04 00:11:01;;;;;;;14.80;9.77;;;;;;;;;;5072210;28;20344;-42
2022/05/04 00:13:27;;;;;;;13.25;8.38;;;;;;;;;;5071972;28;20016;-37
2022/05/04 00:15:53;;;;;;;12.23;8.85;;;;;;;;;;5072209;28;20070;-43
2022/05/04 00:18:19;;;;;;;15.73;9.45;;;;;;;;;;5071926;28;20468;-41
2022/05/04 00:20:45;;;;;;;13.85;8.85;;;;;;;;;;5072180;28;20025;-40
2022/05/04 00:23:11;;;;;;;12.52;8.82;;;;;;;;;;5071747;28;20088;-42
2022/05/04 00:25:37;;;;;;;13.05;8.52;;;;;;;;;;5072349;28;20392;-42
2022/05/04 00:28:04;;;;;;;17.88;8.93;;;;;;;;;;5071800;28;20511;-42
2022/05/04 00:30:31;;;;;;;18.70;8.63;;;;;;;;;;5071759;28;20543;-42
2022/05/04 00:32:57;;;;;;;16.02;8.95;;;;;;;;;;5071841;28;20488;-42
2022/05/04 00:35:23;;;;;;;14.43;8.50;;;;;;;;;;5072078;28;20112;-41
2022/05/04 00:37:49;;;;;;;12.32;8.30;;;;;;;;;;5071634;28;20047;-42
2022/05/04 00:40:15;;;;;;;11.40;8.23;;;;;;;;;;5071719;28;20507;-41
2022/05/04 00:42:41;;;;;;;10.65;7.82;;;;;;;;;;5071835;28;20140;-41
2022/05/04 00:45:08;;;;;;;11.07;7.35;;;;;;;;;;5071644;28;20029;-42
2022/05/04 00:47:36;;;;;;;10.50;7.90;;;;;;;;;;5072502;28;20031;-41
2022/05/04 00:50:06;;;;;;;10.60;7.70;;;;;;;;;;5075561;28;20023;-41
2022/05/04 00:52:35;;;;;;;11.93;7.57;;;;;;;;;;5075433;28;20113;-41
2022/05/04 00:55:02;;;;;;;11.43;7.55;;;;;;;;;;5075223;28;20021;-41
2022/05/04 01:00:15;;;;;;;13.32;7.65;;;;;;;;;;5075564;28;20094;-41
2022/05/04 01:02:41;;;;;;;10.52;7.80;;;;;;;;;;5074826;28;20051;-40
2022/05/04 01:05:10;;;;;;;11.75;7.25;;;;;;;;;;5075419;28;20017;-36
2022/05/04 01:07:37;;;;;;;12.02;8.25;;;;;;;;;;5075171;28;20476;-34
2022/05/04 01:10:06;;;;;;;9.85;7.40;;;;;;;;;;5075406;28;20439;-35
2022/05/04 01:12:33;;;;;;;16.38;7.63;;;;;;;;;;5074909;28;20025;-35
2022/05/04 01:14:59;;;;;;;12.07;8.02;;;;;;;;;;5074908;28;20473;-34
2022/05/04 01:17:27;;;;;;;12.80;7.90;;;;;;;;;;5075305;28;20108;-36
2022/05/04 01:19:55;;;;;;;9.13;7.85;;;;;;;;;;5074846;28;20020;-42
2022/05/04 01:22:22;;;;;;;12.27;7.90;;;;;;;;;;5075143;28;20116;-41
2022/05/04 01:24:48;;;;;;;11.57;8.00;;;;;;;;;;5073548;28;20043;-39
2022/05/04 01:27:14;;;;;;;11.70;8.35;;;;;;;;;;5074946;28;20031;-41
2022/05/04 01:29:40;;;;;;;12.68;8.20;;;;;;;;;;5074613;28;20144;-41
2022/05/04 01:32:07;;;;;;;10.30;7.65;;;;;;;;;;5074601;28;20032;-40
2022/05/04 01:34:33;;;;;;;12.10;8.13;;;;;;;;;;5074445;28;20025;-40
2022/05/04 01:36:59;;;;;;;13.30;8.75;;;;;;;;;;5074599;28;20565;-42
2022/05/04 01:39:25;;;;;;;11.00;7.78;;;;;;;;;;5074763;28;20033;-39
2022/05/04 01:42:02;;;;;;;9.88;7.20;;;;;;;;;;5074407;28;20041;-40
2022/05/04 01:44:28;;;;;;;11.45;8.02;;;;;;;;;;5074685;28;20031;-38
2022/05/04 01:46:54;;;;;;;11.43;7.80;;;;;;;;;;5074395;28;20416;-42
2022/05/04 01:49:20;;;;;;;11.05;7.78;;;;;;;;;;5074543;28;20025;-34
2022/05/04 01:51:46;;;;;;;12.23;7.95;;;;;;;;;;5074327;28;20100;-40
2022/05/04 01:54:13;;;;;;;10.10;7.63;;;;;;;;;;5074381;28;20025;-34
2022/05/04 01:56:39;;;;;;;12.70;8.32;;;;;;;;;;5074404;28;20074;-34
2022/05/04 01:59:05;;;;;;;10.82;8.02;;;;;;;;;;5073999;28;20112;-35
2022/05/04 02:01:31;;;;;;;11.80;7.45;;;;;;;;;;5073837;28;20076;-35
2022/05/04 02:03:58;;;;;;;9.15;7.03;;;;;;;;;;5074123;28;20029;-34
2022/05/04 02:06:24;;;;;;;9.98;6.90;;;;;;;;;;5074497;28;20021;-35
2022/05/04 02:08:50;;;;;;;9.50;7.68;;;;;;;;;;5073970;28;20200;-35
2022/05/04 02:11:17;;;;;;;14.98;7.20;;;;;;;;;;5074275;28;20016;-35
2022/05/04 02:13:43;;;;;;;13.90;8.13;;;;;;;;;;5073915;28;20032;-35
2022/05/04 02:16:09;;;;;;;8.40;7.03;;;;;;;;;;5074049;28;20024;-35
2022/05/04 02:18:35;;;;;;;12.93;7.80;;;;;;;;;;5073792;28;20555;-40
2022/05/04 02:21:01;;;;;;;141.35;55.75;;;;;;;;;;5073545;28;20135;-37
2022/05/04 02:23:27;;;;;;;63.40;25.63;;;;;;;;;;5074204;28;20384;-39
2022/05/04 02:25:54;;;;;;;39.15;18.88;;;;;;;;;;5073601;28;20021;-37
2022/05/04 02:28:20;;;;;;;38.78;15.70;;;;;;;;;;5074002;28;20553;-35
2022/05/04 02:30:47;;;;;;;31.27;13.70;;;;;;;;;;5073344;28;20040;-35
2022/05/04 02:33:14;;;;;;;24.55;12.23;;;;;;;;;;5073650;28;20039;-36
2022/05/04 02:38:27;;;;;;;23.20;10.95;;;;;;;;;;5073729;28;20036;-36
2022/05/04 02:40:53;;;;;;;23.13;10.63;;;;;;;;;;5073525;28;20468;-41
2022/05/04 02:43:20;;;;;;;16.83;10.65;;;;;;;;;;5073229;28;20042;-35
2022/05/04 02:45:46;;;;;;;23.17;10.60;;;;;;;;;;5073349;28;20157;-37
2022/05/04 02:48:15;;;;;;;19.90;10.68;;;;;;;;;;5073056;28;20025;-40
2022/05/04 02:50:41;;;;;;;15.57;9.60;;;;;;;;;;5073385;28;20041;-42
2022/05/04 02:53:07;;;;;;;14.40;8.98;;;;;;;;;;5073254;28;20454;-42
2022/05/04 02:55:33;;;;;;;16.08;9.38;;;;;;;;;;5073303;28;20044;-40
2022/05/04 02:58:00;;;;;;;15.43;8.88;;;;;;;;;;5073190;28;20024;-42
2022/05/04 03:00:26;;;;;;;14.07;8.35;;;;;;;;;;5072521;28;20081;-42
2022/05/04 03:02:55;;;;;;;18.88;9.02;;;;;;;;;;5072969;28;20119;-42
2022/05/04 03:05:21;;;;;;;12.02;8.30;;;;;;;;;;5072729;28;20021;-35
2022/05/04 03:07:47;;;;;;;14.07;8.48;;;;;;;;;;5073056;28;20086;-36
2022/05/04 03:10:14;;;;;;;11.20;8.60;;;;;;;;;;5072316;28;20052;-35
2022/05/04 03:12:41;;;;;;;14.57;8.60;;;;;;;;;;5072993;28;20396;-35
2022/05/04 03:15:07;;;;;;;14.85;8.82;;;;;;;;;;5072782;28;20023;-35
2022/05/04 03:17:34;;;;;;;14.63;9.23;;;;;;;;;;5072590;28;20542;-35
2022/05/04 03:20:01;;;;;;;17.92;8.93;;;;;;;;;;5072576;28;20028;-41
2022/05/04 03:22:27;;;;;;;13.00;8.45;;;;;;;;;;5072362;28;20039;-41
2022/05/04 03:24:53;;;;;;;18.35;7.93;;;;;;;;;;5072676;28;20029;-42
2022/05/04 03:27:19;;;;;;;15.88;8.45;;;;;;;;;;5072394;28;20119;-41
2022/05/04 03:29:48;;;;;;;11.25;8.25;;;;;;;;;;5072751;28;20095;-42
2022/05/04 03:32:14;;;;;;;14.02;8.63;;;;;;;;;;5072631;28;20037;-42
2022/05/04 03:34:40;;;;;;;12.45;8.57;;;;;;;;;;5072769;28;20025;-42
2022/05/04 03:37:06;;;;;;;14.55;8.52;;;;;;;;;;5072364;28;20099;-42
2022/05/04 03:39:33;;;;;;;18.58;8.25;;;;;;;;;;5072708;28;20021;-42
2022/05/04 03:41:59;;;;;;;41.45;23.83;;;;;;;;;;5072331;28;20108;-42
2022/05/04 03:44:26;;;;;;;41.30;24.98;;;;;;;;;;5072405;28;20032;-42
2022/05/04 03:46:53;;;;;;;35.67;22.45;;;;;;;;;;5072188;28;20021;-41
2022/05/04 03:49:20;;;;;;;45.00;26.88;;;;;;;;;;5072205;28;20049;-42
2022/05/04 03:51:46;;;;;;;80.47;43.75;;;;;;;;;;5072472;28;20016;-42
2022/05/04 03:54:15;;;;;;;125.50;69.93;;;;;;;;;;5072082;28;20460;-41
2022/05/04 03:56:41;;;;;;;76.63;44.95;;;;;;;;;;5072238;28;20050;-40
2022/05/04 03:59:08;;;;;;;161.55;84.50;;;;;;;;;;5072196;28;20035;-41
2022/05/04 04:01:34;;;;;;;68.55;37.03;;;;;;;;;;5071650;28;20040;-36
2022/05/04 04:04:00;;;;;;;73.13;35.60;;;;;;;;;;5072149;28;20116;-40
2022/05/04 04:06:26;;;;;;;46.65;25.58;;;;;;;;;;5072282;28;20013;-42
2022/05/04 04:08:52;;;;;;;70.50;41.10;;;;;;;;;;5071837;28;20082;-41
2022/05/04 04:11:19;;;;;;;58.78;32.45;;;;;;;;;;5071888;28;20046;-41
2022/05/04 04:13:46;;;;;;;50.70;28.83;;;;;;;;;;5072085;28;20073;-41
2022/05/04 04:16:13;;;;;;;58.60;32.63;;;;;;;;;;5071808;28;20144;-48
2022/05/04 04:18:41;;;;;;;64.25;36.80;;;;;;;;;;5072025;28;20048;-43
2022/05/04 04:23:52;;;;;;;98.22;57.70;;;;;;;;;;5074828;28;20043;-41
2022/05/04 04:26:18;;;;;;;120.57;69.05;;;;;;;;;;5076109;28;20176;-41
2022/05/04 04:28:45;;;;;;;117.68;67.10;;;;;;;;;;5075813;28;20027;-41
2022/05/04 04:31:11;;;;;;;99.18;59.00;;;;;;;;;;5075942;28;20024;-41
2022/05/04 04:33:37;;;;;;;104.40;60.70;;;;;;;;;;5075868;28;20328;-41
2022/05/04 04:36:04;;;;;;;100.85;58.33;;;;;;;;;;5076072;28;20119;-42
2022/05/04 04:38:30;;;;;;;202.18;107.82;;;;;;;;;;5075713;28;20107;-41
2022/05/04 04:40:57;;;;;;;134.43;75.15;;;;;;;;;;5075697;28;20024;-43
2022/05/04 04:43:23;;;;;;;226.60;133.18;;;;;;;;;;5075299;28;20035;-40
2022/05/04 04:45:50;;;;;;;144.57;84.75;;;;;;;;;;5075586;28;20392;-41
2022/05/04 04:48:16;;;;;;;137.15;79.40;;;;;;;;;;5075285;28;20035;-41
2022/05/04 04:50:43;;;;;;;188.13;108.22;;;;;;;;;;5075397;28;20425;-40
2022/05/04 04:53:11;;;;;;;159.45;95.68;;;;;;;;;;5075524;28;20107;-41
2022/05/04 04:55:38;;;;;;;138.90;82.68;;;;;;;;;;5075196;28;20036;-40
2022/05/04 04:58:04;;;;;;;123.03;76.53;;;;;;;;;;5075543;28;20052;-41
2022/05/04 05:00:30;;;;;;;133.27;66.95;;;;;;;;;;5074905;28;20362;-40
2022/05/04 05:02:56;;;;;;;147.88;87.65;;;;;;;;;;5075211;28;20028;-40
2022/05/04 05:05:23;;;;;;;166.98;96.20;;;;;;;;;;5075189;28;20032;-40
2022/05/04 05:07:49;;;;;;;124.43;72.88;;;;;;;;;;5075534;28;20082;-40
2022/05/04 05:10:15;;;;;;;126.78;69.07;;;;;;;;;;5075250;28;20365;-40
2022/05/04 05:12:41;;;;;;;95.18;54.75;;;;;;;;;;5075047;28;20028;-40
2022/05/04 05:17:54;;;;;;;65.45;36.08;;;;;;;;;;5074911;28;20044;-40
2022/05/04 05:20:21;;;;;;;55.60;32.30;;;;;;;;;;5075158;28;20470;-40
2022/05/04 05:22:47;;;;;;;52.85;30.38;;;;;;;;;;5074673;28;20119;-40
2022/05/04 05:25:13;;;;;;;47.75;26.65;;;;;;;;;;5074967;28;20464;-40
2022/05/04 05:27:40;;;;;;;39.65;23.58;;;;;;;;;;5074727;28;20035;-41
2022/05/04 05:30:08;;;;;;;36.95;22.27;;;;;;;;;;5074623;28;20039;-40
2022/05/04 05:32:34;;;;;;;43.00;23.25;;;;;;;;;;5075138;28;20090;-40
2022/05/04 05:35:01;;;;;;;44.00;25.58;;;;;;;;;;5073990;28;20028;-39
2022/05/04 05:37:27;;;;;;;46.72;25.17;;;;;;;;;;5074660;28;20035;-40
2022/05/04 05:39:53;;;;;;;44.22;24.88;;;;;;;;;;5074531;28;20072;-39
2022/05/04 05:42:19;;;;;;;41.35;23.52;;;;;;;;;;5074562;28;20488;-39
2022/05/04 05:44:45;;;;;;;40.70;24.13;;;;;;;;;;5074382;28;20031;-39
2022/05/04 05:47:13;;;;;;;45.95;24.60;;;;;;;;;;5074502;28;20449;-39
2022/05/04 05:49:39;;;;;;;49.17;25.60;;;;;;;;;;5074442;28;20024;-39
2022/05/04 05:52:08;;;;;;;45.58;23.52;;;;;;;;;;5074399;28;20507;-39
2022/05/04 05:54:34;;;;;;;34.25;18.92;;;;;;;;;;5073046;28;20396;-39
2022/05/04 05:57:00;;;;;;;34.53;19.13;;;;;;;;;;5074207;28;20035;-39
2022/05/04 05:59:26;;;;;;;37.13;22.30;;;;;;;;;;5074373;28;20060;-39
2022/05/04 06:01:52;;;;;;;30.27;18.10;;;;;;;;;;5073820;28;20091;-39
2022/05/04 06:04:18;;;;;;;32.78;18.20;;;;;;;;;;5074710;28;20032;-39
2022/05/04 06:06:46;;;;;;;33.28;19.58;;;;;;;;;;5074096;28;20162;-40
2022/05/04 06:09:12;;;;;;;32.55;19.33;;;;;;;;;;5074421;28;20036;-39
2022/05/04 06:11:38;;;;;;;32.15;18.00;;;;;;;;;;5073956;28;20036;-39
2022/05/04 06:14:04;;;;;;;26.63;17.63;;;;;;;;;;5074012;28;20024;-39
2022/05/04 06:16:30;;;;;;;26.10;16.75;;;;;;;;;;5074242;28;20103;-39
2022/05/04 06:18:57;;;;;;;24.63;15.90;;;;;;;;;;5073823;28;20095;-39
2022/05/04 06:21:23;;;;;;;23.80;15.73;;;;;;;;;;5073871;28;20033;-40
2022/05/04 06:23:49;;;;;;;22.85;14.35;;;;;;;;;;5073775;28;20051;-40
2022/05/04 06:26:20;;;;;;;24.48;14.23;;;;;;;;;;5073854;28;20048;-39
2022/05/04 06:28:46;;;;;;;23.17;14.38;;;;;;;;;;5073427;28;20028;-39
2022/05/04 06:34:11;;;;;;;18.10;11.60;;;;;;;;;;5073982;28;20027;-39
2022/05/04 06:36:41;;;;;;;17.40;11.52;;;;;;;;;;5073546;28;20021;-39
2022/05/04 06:39:10;;;;;;;14.35;10.23;;;;;;;;;;5073658;28;20032;-39
2022/05/04 06:41:40;;;;;;;11.52;8.90;;;;;;;;;;5073164;28;20036;-40
2022/05/04 06:44:06;;;;;;;16.75;10.05;;;;;;;;;;5073420;28;20031;-40
2022/05/04 06:46:32;;;;;;;13.80;8.65;;;;;;;;;;5072577;28;20028;-39
2022/05/04 06:48:58;;;;;;;13.60;9.88;;;;;;;;;;5073200;28;20636;-39
2022/05/04 06:51:24;;;;;;;11.85;8.20;;;;;;;;;;5073261;28;20380;-39
2022/05/04 06:53:53;;;;;;;10.77;7.13;;;;;;;;;;5073098;28;20023;-39
2022/05/04 06:56:19;;;;;;;8.65;7.10;;;;;;;;;;5073471;28;20107;-40
2022/05/04 06:58:46;;;;;;;11.32;6.57;;;;;;;;;;5073126;28;20028;-40
2022/05/04 07:01:12;;;;;;;9.85;7.20;;;;;;;;;;5072941;28;20140;-39
2022/05/04 07:03:38;;;;;;;11.70;7.35;;;;;;;;;;5072870;28;20388;-40
2022/05/04 07:06:04;;;;;;;9.13;6.90;;;;;;;;;;5072920;28;20024;-40
2022/05/04 07:08:31;;;;;;;9.48;6.45;;;;;;;;;;5072935;28;20024;-40
2022/05/04 07:10:57;;;;;;;7.93;5.60;;;;;;;;;;5072720;28;20025;-39
2022/05/04 07:13:23;;;;;;;10.40;5.75;;;;;;;;;;5072841;28;20023;-40
2022/05/04 07:15:50;;;;;;;8.23;5.40;;;;;;;;;;5072815;28;20388;-40
2022/05/04 07:18:16;;;;;;;9.02;5.20;;;;;;;;;;5072797;28;20017;-40
2022/05/04 07:20:42;;;;;;;8.70;5.00;;;;;;;;;;5072489;28;20048;-39
2022/05/04 07:23:08;;;;;;;6.13;4.80;;;;;;;;;;5072775;28;20480;-40
2022/05/04 07:25:35;;;;;;;8.05;5.10;;;;;;;;;;5072478;28;20532;-41
2022/05/04 07:28:01;;;;;;;7.50;5.32;;;;;;;;;;5072821;28;20020;-40
2022/05/04 07:30:27;;;;;;;7.68;4.47;;;;;;;;;;5072525;28;20023;-40
2022/05/04 07:32:53;;;;;;;7.10;4.25;;;;;;;;;;5072745;28;20025;-40
2022/05/04 07:35:19;;;;;;;5.25;4.00;;;;;;;;;;5071654;28;20464;-40
2022/05/04 07:37:45;;;;;;;5.97;3.80;;;;;;;;;;5072488;28;20060;-39
2022/05/04 07:42:58;;;;;;;10.52;3.80;;;;;;;;;;5072297;28;20048;-40
2022/05/04 07:45:25;;;;;;;5.13;3.65;;;;;;;;;;5072318;28;20161;-40
2022/05/04 07:47:53;;;;;;;7.10;4.30;;;;;;;;;;5072430;28;20021;-40
2022/05/04 07:50:19;;;;;;;7.43;4.20;;;;;;;;;;5072263;28;20020;-41
2022/05/04 07:52:48;;;;;;;10.07;4.78;;;;;;;;;;5072410;28;20112;-53
2022/05/04 07:55:14;;;;;;;5.57;4.07;;;;;;;;;;5072320;28;20027;-41
2022/05/04 07:57:41;;;;;;;6.68;4.68;;;;;;;;;;5072400;28;20025;-41
2022/05/04 08:05:40;;;;;;;8.73;3.95;;;;;;;;;;5072574;28;20078;-40
2022/05/04 08:08:07;;;;;;;9.93;4.53;;;;;;;;;;5072102;28;20025;-40
2022/05/04 08:10:33;;;;;;;5.97;4.20;;;;;;;;;;5072318;28;20025;-40
2022/05/04 08:12:59;;;;;;;7.43;4.53;;;;;;;;;;5072064;28;20086;-40
2022/05/04 08:15:25;;;;;;;10.50;3.90;;;;;;;;;;5072030;28;20027;-39
2022/05/04 08:17:51;;;;;;;10.27;3.45;;;;;;;;;;5072113;28;20044;-40
2022/05/04 08:20:17;;;;;;;11.38;3.80;;;;;;;;;;5071821;28;20020;-40
2022/05/04 08:22:43;;;;;;;4.25;3.70;;;;;;;;;;5072072;28;20114;-42
2022/05/04 08:25:12;;;;;;;8.63;3.53;;;;;;;;;;5072083;28;20025;-40
2022/05/04 08:27:41;;;;;;;7.57;3.47;;;;;;;;;;5072253;28;20442;-40
2022/05/04 08:30:07;;;;;;;5.57;3.17;;;;;;;;;;5071792;28;20017;-40
2022/05/04 08:32:34;;;;;;;8.60;3.40;;;;;;;;;;5071914;28;20036;-40
2022/05/04 08:35:00;;;;;;;4.95;3.10;;;;;;;;;;5072238;28;20380;-40
2022/05/04 08:37:30;;;;;;;6.57;3.33;;;;;;;;;;5071997;28;20028;-40
2022/05/04 08:39:56;;;;;;;4.38;3.30;;;;;;;;;;5071981;28;20097;-42
2022/05/04 08:42:22;;;;;;;6.47;3.50;;;;;;;;;;5071494;28;20031;-40
2022/05/04 08:44:52;;;;;;;5.43;3.20;;;;;;;;;;5071839;28;20035;-42
2022/05/04 08:47:21;;;;;;;5.18;3.47;;;;;;;;;;5071571;28;20070;-41
2022/05/04 08:49:50;;;;;;;4.65;3.17;;;;;;;;;;5071818;28;20124;-40
2022/05/04 08:52:16;;;;;;;5.05;3.58;;;;;;;;;;5071724;28;20036;-41
2022/05/04 08:54:45;;;;;;;5.07;3.55;;;;;;;;;;5071907;28;20082;-40
2022/05/04 08:57:11;;;;;;;7.45;3.92;;;;;;;;;;5072040;28;20112;-41
2022/05/04 08:59:38;;;;;;;5.28;3.50;;;;;;;;;;5071599;28;20485;-40
2022/05/04 09:02:05;;;;;;;6.38;3.53;;;;;;;;;;5071341;28;20084;-40
2022/05/04 09:04:31;;;;;;;5.90;3.90;;;;;;;;;;5071793;28;20419;-41
2022/05/04 09:07:00;;;;;;;7.18;3.60;;;;;;;;;;5071578;28;20116;-40
2022/05/04 09:09:26;;;;;;;7.57;3.75;;;;;;;;;;5072221;28;20090;-41
2022/05/04 09:11:52;;;;;;;3.97;3.53;;;;;;;;;;5075228;28;20468;-41
2022/05/04 09:14:26;;;;;;;5.75;3.90;;;;;;;;;;5075012;28;20024;-40
2022/05/04 09:16:52;;;;;;;5.55;3.70;;;;;;;;;;5074745;28;20482;-40
2022/05/04 09:19:19;;;;;;;4.85;3.67;;;;;;;;;;5075127;28;20025;-40
2022/05/04 09:21:49;;;;;;;5.35;3.55;;;;;;;;;;5074848;28;20024;-40
2022/05/04 09:24:16;;;;;;;5.55;3.30;;;;;;;;;;5075147;28;20481;-40
2022/05/04 09:26:42;;;;;;;4.00;3.08;;;;;;;;;;5074987;28;20032;-40
2022/05/04 09:29:10;;;;;;;5.32;3.03;;;;;;;;;;5074981;28;20028;-41
2022/05/04 09:31:39;;;;;;;5.25;3.40;;;;;;;;;;5074804;28;20032;-40
2022/05/04 09:34:10;;;;;;;5.13;2.72;;;;;;;;;;5074601;28;20024;-41
2022/05/04 09:44:54;;;;;;;3.88;3.08;;;;;;;;;;5074940;28;20059;-41
2022/05/04 09:45:07;;;;;;;3.83;3.28;;;;;;;;;;5074971;28;20392;-42
2022/05/04 09:47:36;;;;;;;9.25;3.28;;;;;;;;;;5074888;28;20028;-41
2022/05/04 09:50:03;;;;;;;4.80;3.42;;;;;;;;;;5072835;28;20037;-40
2022/05/04 09:52:40;;;;;;;5.50;3.47;;;;;;;;;;5074425;28;20465;-40
2022/05/04 09:55:27;;;;;;;6.13;3.88;;;;;;;;;;5074256;28;20077;-43
2022/05/04 09:57:56;;;;;;;5.03;3.85;;;;;;;;;;5074273;28;20464;-43
2022/05/04 10:00:24;;;;;;;7.15;3.38;;;;;;;;;;5074247;28;20040;-41
2022/05/04 10:02:52;;;;;;;5.38;3.05;;;;;;;;;;5073999;28;20501;-42
2022/05/04 10:05:19;;;;;;;4.05;3.38;;;;;;;;;;5074820;28;20025;-42
2022/05/04 10:07:47;;;;;;;3.92;3.15;;;;;;;;;;5074005;28;20035;-41
2022/05/04 10:10:14;;;;;;;3.63;3.00;;;;;;;;;;5074240;28;20028;-41
2022/05/04 10:12:43;;;;;;;4.93;3.38;;;;;;;;;;5074217;28;20388;-43
2022/05/04 10:15:10;;;;;;;5.90;3.55;;;;;;;;;;5073880;28;20027;-44
2022/05/04 10:17:57;;;;;;;7.78;3.67;;;;;;;;;;5073988;28;20085;-43
2022/05/04 10:20:32;;;;;;;5.00;3.83;;;;;;;;;;5073950;28;20044;-41
2022/05/04 10:23:18;;;;;;;6.10;3.47;;;;;;;;;;5073632;28;20146;-41
2022/05/04 10:25:44;;;;;;;9.05;3.35;;;;;;;;;;5073947;28;20041;-40
2022/05/04 10:28:14;;;;;;;5.13;3.38;;;;;;;;;;5073708;28;20078;-41
2022/05/04 10:30:59;;;;;;;4.30;3.42;;;;;;;;;;5073954;28;20507;-41
2022/05/04 10:33:26;;;;;;;14.98;4.18;;;;;;;;;;5073814;28;20107;-39
2022/05/04 10:35:52;;;;;;;10.30;4.18;;;;;;;;;;5073386;28;20024;-42
2022/05/04 10:38:24;;;;;;;10.38;3.47;;;;;;;;;;5073490;28;20043;-41
2022/05/04 10:41:00;;;;;;;20.23;10.90;;;;;;;;;;5073214;28;20511;-43
2022/05/04 10:43:38;;;;;;;38.40;17.85;;;;;;;;;;5073167;28;20488;-42
2022/05/04 10:46:05;;;;;;;40.20;23.23;;;;;;;;;;5073508;28;20034;-42
2022/05/04 10:48:31;;;;;;;50.33;27.25;;;;;;;;;;5073027;28;20020;-41
2022/05/04 10:51:03;;;;;;;52.88;27.52;;;;;;;;;;5073463;28;20021;-42
2022/05/04 10:53:29;;;;;;;50.05;25.58;;;;;;;;;;5073244;28;20427;-42
2022/05/04 10:56:02;;;;;;;33.33;18.77;;;;;;;;;;5073563;28;20349;-41
2022/05/04 10:58:43;;;;;;;29.80;17.33;;;;;;;;;;5073573;28;20028;-42
2022/05/04 11:01:11;;;;;;;26.48;14.88;;;;;;;;;;5072884;28;20136;-42
2022/05/04 11:03:39;;;;;;;17.73;10.60;;;;;;;;;;5073083;28;20039;-42
2022/05/04 11:06:09;;;;;;;17.92;10.38;;;;;;;;;;5072859;28;20028;-41
2022/05/04 11:08:35;;;;;;;20.98;9.60;;;;;;;;;;5072875;28;20028;-41
2022/05/04 11:11:02;;;;;;;15.48;8.18;;;;;;;;;;5073157;28;20025;-41
2022/05/04 11:13:30;;;;;;;18.20;8.10;;;;;;;;;;5072873;28;20024;-42
2022/05/04 11:15:58;;;;;;;18.27;6.00;;;;;;;;;;5072896;28;20066;-41
2022/05/04 11:18:24;;;;;;;29.67;7.15;;;;;;;;;;5072653;28;20200;-42
2022/05/04 11:20:51;;;;;;;35.40;6.85;;;;;;;;;;5072745;28;20028;-42
2022/05/04 11:23:24;;;;;;;14.50;6.38;;;;;;;;;;5072536;28;20083;-41
2022/05/04 11:25:50;;;;;;;29.48;6.22;;;;;;;;;;5072892;28;20024;-42
2022/05/04 11:28:20;;;;;;;34.38;6.38;;;;;;;;;;5072691;28;20051;-41
2022/05/04 11:30:46;;;;;;;20.00;5.47;;;;;;;;;;5072514;28;20040;-42
2022/05/04 11:33:15;;;;;;;24.52;5.03;;;;;;;;;;5070564;28;20260;-42
2022/05/04 11:35:59;;;;;;;14.45;5.13;;;;;;;;;;5070861;28;20023;-42
2022/05/04 11:38:25;;;;;;;19.00;11.90;;;;;;;;;;5068810;28;20025;-42
2022/05/04 11:40:52;;;;;;;62.35;35.88;;;;;;;;;;5071017;28;20082;-43
2022/05/04 11:43:29;;;;;;;68.78;36.40;;;;;;;;;;5070720;28;20426;-42
2022/05/04 11:45:56;;;;;;;64.47;36.35;;;;;;;;;;5071117;28;20486;-42
2022/05/04 11:48:23;;;;;;;58.97;33.58;;;;;;;;;;5070728;28;20070;-42
2022/05/04 11:50:52;;;;;;;40.70;24.63;;;;;;;;;;5071157;28;20021;-42
2022/05/04 11:53:18;;;;;;;21.40;13.70;;;;;;;;;;5070901;28;20029;-42
2022/05/04 11:55:44;;;;;;;18.02;12.35;;;;;;;;;;5071658;28;20032;-43
2022/05/04 11:58:11;;;;;;;19.40;12.27;;;;;;;;;;5071491;28;20013;-42
2022/05/04 12:00:38;;;;;;;16.90;11.80;;;;;;;;;;5071398;28;20033;-42
2022/05/04 12:03:07;;;;;;;34.92;13.55;;;;;;;;;;5071429;28;20036;-44
2022/05/04 12:05:34;;;;;;;30.08;17.98;;;;;;;;;;5071721;28;20496;-43
2022/05/04 12:08:00;;;;;;;32.00;17.55;;;;;;;;;;5071923;28;20035;-43
2022/05/04 12:10:27;;;;;;;31.10;15.38;;;;;;;;;;5071614;28;20077;-43
2022/05/04 12:12:53;;;;;;;20.92;11.65;;;;;;;;;;5069168;28;20020;-43
2022/05/04 12:15:23;;;;;;;18.48;11.43;;;;;;;;;;5071474;28;20365;-43
2022/05/04 12:17:50;;;;;;;25.00;14.88;;;;;;;;;;5071723;28;20029;-43
2022/05/04 12:20:21;;;;;;;31.65;16.67;;;;;;;;;;5071918;28;20159;-43
2022/05/04 12:22:48;;;;;;;33.13;20.20;;;;;;;;;;5071548;28;20569;-43
2022/05/04 12:25:14;;;;;;;23.17;13.55;;;;;;;;;;5071569;28;20380;-43
2022/05/04 12:27:40;;;;;;;13.25;9.43;;;;;;;;;;5071322;28;20025;-43
2022/05/04 12:33:11;;;;;;;18.55;11.18;;;;;;;;;;5069013;28;20125;-43
2022/05/04 12:35:39;;;;;;;33.60;21.65;;;;;;;;;;5070815;28;20111;-44
2022/05/04 12:38:06;;;;;;;41.60;24.20;;;;;;;;;;5070882;28;20037;-42
2022/05/04 12:40:33;;;;;;;57.53;29.50;;;;;;;;;;5070965;28;20021;-42
2022/05/04 12:43:03;;;;;;;89.97;51.88;;;;;;;;;;5071112;28;20024;-42
2022/05/04 12:45:32;;;;;;;93.53;52.65;;;;;;;;;;5075778;28;20120;-41
2022/05/04 12:47:58;;;;;;;75.38;43.75;;;;;;;;;;5074464;28;20053;-44
2022/05/04 12:50:28;;;;;;;62.97;37.90;;;;;;;;;;5074745;28;20376;-42
2022/05/04 12:52:57;;;;;;;56.35;32.45;;;;;;;;;;5073898;28;20523;-42
2022/05/04 12:58:09;;;;;;;48.63;22.45;;;;;;;;;;5073033;28;20024;-41
2022/05/04 13:00:36;;;;;;;58.53;23.45;;;;;;;;;;5075120;28;20090;-42
2022/05/04 13:03:02;;;;;;;73.10;24.55;;;;;;;;;;5075373;28;20025;-43
2022/05/04 13:05:28;;;;;;;47.58;15.48;;;;;;;;;;5075242;28;20028;-42
2022/05/04 13:07:54;;;;;;;66.43;15.05;;;;;;;;;;5075270;28;20024;-43
2022/05/04 19:45:16;;;;;;;17.63;5.97;;;;;;;;;;5021477;22;4704036;-54
2022/05/04 19:47:42;;;;;;;13.90;4.75;;;;;;;;;;5151003;27;20444;-54
2022/05/04 19:50:09;;;;;;;16.27;6.78;;;;;;;;;;5151104;27;20078;-52
2022/05/04 19:52:35;;;;;;;14.30;6.88;;;;;;;;;;5151388;27;20113;-61
2022/05/04 19:55:01;;;;;;;16.65;3.72;;;;;;;;;;5151562;27;20023;-56
2022/05/04 19:57:27;;;;;;;5.18;3.05;;;;;;;;;;5151170;27;20110;-61
2022/05/04 19:59:53;;;;;;;10.02;3.83;;;;;;;;;;5150938;27;20023;-60
2022/05/04 20:02:19;;;;;;;5.20;3.53;;;;;;;;;;5151070;27;20042;-61
2022/05/04 20:04:46;;;;;;;8.07;3.25;;;;;;;;;;5150825;27;20029;-62
2022/05/04 20:07:14;;;;;;;6.25;2.90;;;;;;;;;;5132568;27;20027;-61
2022/05/04 20:09:40;;;;;;;4.38;3.50;;;;;;;;;;5149976;27;20369;-52
2022/05/04 20:12:07;;;;;;;7.47;4.25;;;;;;;;;;5145013;27;20026;-53
2022/05/04 20:14:33;;;;;;;6.68;4.30;;;;;;;;;;5122744;27;20478;-51
2022/05/04 20:16:59;;;;;;;4.45;3.72;;;;;;;;;;5122237;27;20039;-58
2022/05/04 20:19:25;;;;;;;11.93;6.80;;;;;;;;;;5124360;27;20065;-53
2022/05/04 20:21:52;;;;;;;13.88;8.40;;;;;;;;;;5124777;27;20038;-51
2022/05/04 20:24:20;;;;;;;7.60;4.68;;;;;;;;;;5122007;27;20067;-54
2022/05/04 20:26:46;;;;;;;10.27;5.97;;;;;;;;;;5122143;27;20045;-50
2022/05/04 20:29:12;;;;;;;32.80;19.50;;;;;;;;;;5120895;27;20015;-54
2022/05/04 20:31:41;;;;;;;20.55;11.05;;;;;;;;;;5120941;27;20352;-50
2022/05/04 20:34:07;;;;;;;15.13;8.32;;;;;;;;;;5120847;27;20023;-51
2022/05/04 20:36:34;;;;;;;30.42;15.68;;;;;;;;;;5120994;27;20019;-53
2022/05/04 20:39:03;;;;;;;46.13;23.30;;;;;;;;;;5120733;27;20026;-57
2022/05/04 20:41:30;;;;;;;14.75;9.35;;;;;;;;;;5121321;27;20027;-52
2022/05/04 20:43:57;;;;;;;22.45;12.70;;;;;;;;;;5121517;27;20035;-56
2022/05/04 20:46:26;;;;;;;18.00;9.15;;;;;;;;;;5120755;27;20023;-63
2022/05/04 20:48:52;;;;;;;21.10;12.43;;;;;;;;;;5120565;27;20077;-63
2022/05/04 20:54:03;;;;;;;16.67;9.35;;;;;;;;;;5106700;27;20155;-51
2022/05/04 20:56:29;;;;;;;24.85;13.05;;;;;;;;;;5106517;27;20032;-51
2022/05/04 20:58:55;;;;;;;22.48;12.02;;;;;;;;;;5107935;27;20024;-51
2022/05/04 21:01:22;;;;;;;13.30;7.68;;;;;;;;;;5106682;27;20113;-51
2022/05/04 21:03:48;;;;;;;17.85;11.05;;;;;;;;;;5107602;27;20029;-50
2022/05/04 21:06:14;;;;;;;21.30;9.77;;;;;;;;;;5106870;27;20522;-52
2022/05/04 21:08:40;;;;;;;13.45;6.28;;;;;;;;;;5106336;27;20152;-51
2022/05/04 21:11:07;;;;;;;44.00;24.95;;;;;;;;;;5106219;27;20032;-54
2022/05/04 21:13:33;;;;;;;12.98;7.50;;;;;;;;;;5106212;27;20084;-56
2022/05/04 21:15:59;;;;;;;11.50;7.35;;;;;;;;;;5106300;27;20082;-50
2022/05/04 21:18:28;;;;;;;17.85;10.68;;;;;;;;;;5106208;27;20030;-52
2022/05/04 21:20:55;;;;;;;13.57;6.90;;;;;;;;;;5107300;27;20030;-49
2022/05/04 21:23:22;;;;;;;13.95;7.97;;;;;;;;;;5107215;27;20062;-50
2022/05/04 21:25:48;;;;;;;9.10;6.15;;;;;;;;;;5106178;27;20026;-52
2022/05/04 21:28:14;;;;;;;14.38;7.53;;;;;;;;;;5106134;27;20024;-50
2022/05/04 21:30:41;;;;;;;13.45;7.20;;;;;;;;;;5106677;27;20035;-52
2022/05/04 21:33:08;;;;;;;8.00;4.88;;;;;;;;;;5106150;27;20804;-51
2022/05/04 21:35:34;;;;;;;13.57;4.97;;;;;;;;;;5106292;27;20011;-51
2022/05/04 21:38:01;;;;;;;9.82;4.78;;;;;;;;;;5105972;27;20107;-52
2022/05/04 21:40:30;;;;;;;6.10;4.70;;;;;;;;;;5098815;27;20031;-51